createdAt,value
2019-04-01T00:00:35.880Z,3.50
2019-04-01T00:03:39.559Z,3.30
2019-04-01T00:06:43.261Z,3.87
2019-04-01T00:09:46.914Z,3.67
2019-04-01T00:12:50.812Z,3.52
2019-04-01T00:15:54.523Z,3.70
2019-04-01T00:19:03.407Z,3.50
2019-04-01T00:22:03.622Z,3.97
2019-04-01T00:25:07.588Z,3.77
2019-04-01T00:28:11.263Z,3.73
2019-04-01T00:31:15.137Z,3.50
2019-04-01T00:34:18.805Z,3.43
2019-04-01T00:37:22.741Z,3.83
2019-04-01T00:40:27.295Z,3.67
2019-04-01T00:43:59.162Z,4.20
2019-04-01T00:47:02.935Z,3.90
2019-04-01T00:50:06.979Z,3.50
2019-04-01T00:53:10.615Z,4.20
2019-04-01T00:56:14.338Z,3.63
2019-04-01T00:59:17.993Z,4.00
2019-04-01T01:02:21.785Z,4.20
2019-04-01T01:05:25.497Z,3.63
2019-04-01T01:08:30.138Z,3.83
2019-04-01T01:11:33.840Z,3.47
2019-04-01T01:14:37.543Z,3.80
2019-04-01T01:17:41.214Z,4.00
2019-04-01T01:20:45.226Z,3.77
2019-04-01T01:23:48.873Z,3.60
2019-04-01T01:26:52.574Z,3.70
2019-04-01T01:29:56.229Z,3.47
2019-04-01T01:33:00.218Z,3.40
2019-04-01T01:36:03.990Z,3.80
2019-04-01T01:39:07.711Z,3.97
2019-04-01T01:42:11.524Z,4.20
2019-04-01T01:45:15.295Z,4.30
2019-04-01T01:48:19.062Z,4.03
2019-04-01T01:51:22.834Z,4.90
2019-04-01T01:54:26.559Z,4.70
2019-04-01T01:57:31.054Z,4.87
2019-04-01T02:00:35.381Z,5.37
2019-04-01T02:03:39.093Z,4.90
2019-04-01T02:06:42.766Z,4.90
2019-04-01T02:09:46.434Z,4.47
2019-04-01T02:12:50.110Z,5.30
2019-04-01T02:15:53.769Z,3.97
2019-04-01T02:18:57.486Z,4.37
2019-04-01T02:22:01.129Z,4.43
2019-04-01T02:25:05.691Z,3.90
2019-04-01T02:28:09.440Z,4.47
2019-04-01T02:31:13.137Z,4.30
2019-04-01T02:34:16.900Z,4.53
2019-04-01T02:37:20.647Z,4.13
2019-04-01T02:40:24.371Z,4.40
2019-04-01T02:43:28.171Z,4.07
2019-04-01T02:46:31.842Z,4.30
2019-04-01T02:49:35.628Z,3.67
2019-04-01T02:52:39.356Z,3.93
2019-04-01T02:55:43.043Z,5.40
2019-04-01T02:58:46.764Z,4.57
2019-04-01T03:01:50.581Z,4.40
2019-04-01T03:04:54.270Z,5.23
2019-04-01T03:07:58.075Z,4.50
2019-04-01T03:11:01.795Z,5.20
2019-04-01T03:14:05.700Z,5.10
2019-04-01T03:17:09.389Z,4.90
2019-04-01T03:20:13.204Z,4.17
2019-04-01T03:23:16.914Z,5.10
2019-04-01T03:26:20.549Z,5.33
2019-04-01T03:29:24.255Z,5.20
2019-04-01T03:32:27.960Z,5.20
2019-04-01T03:35:31.731Z,5.73
2019-04-01T03:38:36.313Z,4.33
2019-04-01T03:41:39.995Z,5.00
2019-04-01T03:44:43.745Z,4.60
2019-04-01T03:47:47.449Z,5.23
2019-04-01T03:50:51.119Z,5.33
2019-04-01T03:53:54.957Z,4.70
2019-04-01T03:56:58.732Z,4.63
2019-04-01T04:00:02.498Z,4.57
2019-04-01T04:03:06.603Z,4.60
2019-04-01T04:06:10.274Z,4.53
2019-04-01T04:09:13.996Z,4.73
2019-04-01T04:12:17.704Z,4.97
2019-04-01T04:15:21.404Z,4.43
2019-04-01T04:18:25.166Z,4.67
2019-04-01T04:21:29.071Z,4.23
2019-04-01T04:24:32.752Z,4.10
2019-04-01T04:27:36.459Z,4.70
2019-04-01T04:30:40.223Z,4.60
2019-04-01T04:33:44.199Z,4.43
2019-04-01T04:36:48.059Z,4.70
2019-04-01T04:39:51.756Z,4.40
2019-04-01T04:42:55.763Z,5.40
2019-04-01T04:45:59.599Z,4.63
2019-04-01T04:49:03.324Z,4.93
2019-04-01T04:52:07.012Z,4.63
2019-04-01T04:55:10.734Z,5.73
2019-04-01T04:58:14.510Z,5.23
2019-04-01T05:01:18.223Z,5.50
2019-04-01T05:04:22.015Z,5.87
2019-04-01T05:07:25.738Z,5.43
2019-04-01T05:10:29.427Z,5.43
2019-04-01T05:13:33.215Z,5.50
2019-04-01T05:16:36.897Z,5.97
2019-04-01T05:19:40.755Z,5.70
2019-04-01T05:22:45.297Z,5.42
2019-04-01T05:25:49.116Z,5.70
2019-04-01T05:28:54.442Z,5.33
2019-04-01T05:31:59.594Z,5.17
2019-04-01T05:35:04.722Z,6.10
2019-04-01T05:38:08.530Z,5.20
2019-04-01T05:41:12.750Z,5.43
2019-04-01T05:44:17.121Z,5.80
2019-04-01T05:47:25.270Z,6.30
2019-04-01T05:50:29.039Z,5.30
2019-04-01T05:53:32.777Z,6.33
2019-04-01T05:56:36.534Z,6.43
2019-04-01T05:59:40.438Z,5.90
2019-04-01T06:02:44.126Z,5.30
2019-04-01T06:05:47.963Z,6.93
2019-04-01T06:08:52.888Z,5.87
2019-04-01T06:11:56.555Z,5.90
2019-04-01T06:15:00.403Z,6.07
2019-04-01T06:18:04.574Z,5.30
2019-04-01T06:21:08.261Z,5.47
2019-04-01T06:24:12.002Z,5.07
2019-04-01T06:27:16.238Z,5.77
2019-04-01T06:30:22.607Z,4.33
2019-04-01T06:33:26.320Z,4.33
2019-04-01T06:36:30.263Z,4.03
2019-04-01T06:39:34.070Z,4.50
2019-04-01T06:42:37.744Z,4.67
2019-04-01T06:45:41.548Z,4.10
2019-04-01T06:48:45.590Z,5.17
2019-04-01T06:51:49.302Z,4.63
2019-04-01T06:54:53.700Z,4.70
2019-04-01T06:57:57.554Z,4.57
2019-04-01T07:01:01.527Z,4.70
2019-04-01T07:04:05.283Z,5.00
2019-04-01T07:07:18.768Z,4.80
2019-04-01T07:10:14.418Z,4.50
2019-04-01T07:13:18.101Z,4.27
2019-04-01T07:16:21.898Z,4.30
2019-04-01T07:19:25.971Z,4.60
2019-04-01T07:22:29.782Z,4.20
2019-04-01T07:25:34.249Z,4.57
2019-04-01T07:28:38.153Z,3.93
2019-04-01T07:31:42.030Z,3.70
2019-04-01T07:34:46.055Z,4.27
2019-04-01T07:37:49.795Z,3.80
2019-04-01T07:40:54.431Z,3.93
2019-04-01T07:43:58.424Z,3.37
2019-04-01T07:47:02.195Z,3.27
2019-04-01T07:50:06.290Z,3.57
2019-04-01T07:53:09.978Z,3.50
2019-04-01T07:56:14.067Z,3.20
2019-04-01T07:59:18.393Z,3.57
2019-04-01T08:02:22.075Z,3.17
2019-04-01T08:05:26.317Z,3.30
2019-04-01T08:08:30.265Z,3.33
2019-04-01T08:11:34.009Z,3.40
2019-04-01T08:14:38.096Z,3.10
2019-04-01T08:17:41.835Z,3.37
2019-04-01T08:20:45.558Z,3.10
2019-04-01T08:23:49.816Z,3.67
2019-04-01T08:26:54.619Z,3.13
2019-04-01T08:29:58.402Z,3.10
2019-04-01T08:33:02.168Z,3.00
2019-04-01T08:36:05.861Z,2.80
2019-04-01T08:39:13.695Z,2.50
2019-04-01T08:42:17.461Z,3.10
2019-04-01T08:45:21.288Z,2.90
2019-04-01T08:48:25.156Z,3.03
2019-04-01T08:51:28.895Z,3.07
2019-04-01T08:54:32.837Z,2.10
2019-04-01T08:57:36.727Z,2.07
2019-04-01T09:00:40.423Z,2.50
2019-04-01T09:03:44.217Z,2.33
2019-04-01T09:06:47.921Z,2.80
2019-04-01T09:09:51.789Z,2.20
2019-04-01T09:12:55.954Z,2.67
2019-04-01T09:16:00.330Z,2.70
2019-04-01T09:19:04.010Z,2.30
2019-04-01T09:22:07.710Z,2.53
2019-04-01T09:25:11.578Z,2.87
2019-04-01T09:28:15.282Z,2.63
2019-04-01T09:31:18.991Z,2.80
2019-04-01T09:34:22.743Z,2.83
2019-04-01T09:37:26.447Z,2.97
2019-04-01T09:40:30.138Z,3.20
2019-04-01T09:43:33.904Z,3.60
2019-04-01T09:46:37.602Z,2.73
2019-04-01T09:49:41.306Z,3.23
2019-04-01T09:52:45.145Z,3.70
2019-04-01T09:55:49.030Z,2.90
2019-04-01T09:58:52.713Z,2.90
2019-04-01T10:01:56.530Z,2.87
2019-04-01T10:05:00.388Z,2.40
2019-04-01T10:08:04.241Z,3.10
2019-04-01T10:11:07.994Z,3.10
2019-04-01T10:14:11.795Z,2.80
2019-04-01T10:17:15.698Z,2.87
2019-04-01T10:20:19.558Z,3.10
2019-04-01T10:23:23.282Z,2.67
2019-04-01T10:26:27.158Z,2.90
2019-04-01T10:29:30.901Z,3.17
2019-04-01T10:32:34.602Z,3.20
2019-04-01T10:35:38.323Z,2.50
2019-04-01T10:38:42.142Z,2.60
2019-04-01T10:41:45.849Z,2.70
2019-04-01T10:44:49.569Z,3.60
2019-04-01T10:47:53.217Z,3.00
2019-04-01T10:50:57.082Z,3.00
2019-04-01T10:54:01.014Z,3.20
2019-04-01T10:57:04.890Z,3.13
2019-04-01T11:00:09.742Z,2.93
2019-04-01T11:03:13.527Z,2.60
2019-04-01T11:06:17.399Z,3.20
2019-04-01T11:09:26.613Z,2.57
2019-04-01T11:12:27.160Z,3.40
2019-04-01T11:15:30.895Z,3.53
2019-04-01T11:18:34.754Z,2.93
2019-04-01T11:21:38.429Z,3.10
2019-04-01T11:24:42.246Z,3.10
2019-04-01T11:27:45.998Z,3.10
2019-04-01T11:30:49.773Z,2.90
2019-04-01T11:33:53.907Z,3.07
2019-04-01T11:36:57.669Z,3.17
2019-04-01T11:40:01.423Z,2.53
2019-04-01T11:43:05.427Z,3.10
2019-04-01T11:46:12.343Z,2.40
2019-04-01T11:49:14.674Z,2.87
2019-04-01T11:52:18.419Z,2.50
2019-04-01T11:55:22.341Z,2.60
2019-04-01T11:58:26.217Z,2.37
2019-04-01T12:01:30.270Z,2.57
2019-04-01T12:04:34.067Z,2.60
2019-04-01T12:07:37.783Z,2.30
2019-04-01T12:10:41.441Z,2.77
2019-04-01T12:13:45.584Z,4.73
2019-04-01T12:16:49.370Z,2.30
2019-04-01T12:19:53.409Z,2.47
2019-04-01T12:22:57.275Z,2.57
2019-04-01T12:26:14.509Z,2.70
2019-04-01T12:29:06.438Z,2.57
2019-04-01T12:32:10.165Z,2.73
2019-04-01T12:35:14.058Z,2.40
2019-04-01T12:38:17.785Z,2.67
2019-04-01T12:41:21.732Z,3.00
2019-04-01T12:44:25.649Z,2.73
2019-04-01T12:47:29.401Z,2.80
2019-04-01T12:50:33.173Z,2.80
2019-04-01T12:53:37.002Z,3.20
2019-04-01T12:56:40.662Z,2.70
2019-04-01T12:59:45.911Z,2.80
2019-04-01T13:02:50.422Z,2.77
2019-04-01T13:05:54.325Z,2.70
2019-04-01T13:08:58.089Z,2.63
2019-04-01T13:12:01.807Z,2.50
2019-04-01T13:15:05.847Z,2.40
2019-04-01T13:18:09.517Z,2.47
2019-04-01T13:21:13.430Z,2.77
2019-04-01T13:24:17.142Z,2.70
2019-04-01T13:27:20.837Z,2.33
2019-04-01T13:30:26.640Z,2.30
2019-04-01T13:33:30.387Z,2.47
2019-04-01T13:36:34.095Z,2.67
2019-04-01T13:39:37.747Z,2.40
2019-04-01T13:42:42.470Z,2.30
2019-04-01T13:45:46.918Z,2.70
2019-04-01T13:48:57.406Z,2.47
2019-04-01T13:51:56.111Z,2.90
2019-04-01T13:55:00.762Z,2.10
2019-04-01T13:58:04.608Z,2.33
2019-04-01T14:01:08.299Z,2.27
2019-04-01T14:04:12.042Z,2.30
2019-04-01T14:07:16.202Z,2.10
2019-04-01T14:10:20.091Z,1.90
2019-04-01T14:13:23.841Z,2.10
2019-04-01T14:16:27.505Z,2.15
2019-04-01T14:19:31.203Z,2.07
2019-04-01T14:22:34.971Z,2.30
2019-04-01T14:25:38.757Z,2.13
2019-04-01T14:28:42.438Z,2.40
2019-04-01T14:31:46.158Z,2.33
2019-04-01T14:34:50.479Z,2.83
2019-04-01T14:37:57.930Z,2.53
2019-04-01T14:41:00.035Z,2.63
2019-04-01T14:44:03.793Z,3.07
2019-04-01T14:47:09.211Z,2.17
2019-04-01T14:50:13.845Z,2.00
2019-04-01T14:53:17.598Z,2.57
2019-04-01T14:56:21.293Z,2.13
2019-04-01T14:59:25.066Z,2.50
2019-04-01T15:02:28.719Z,2.73
2019-04-01T15:05:32.705Z,2.30
2019-04-01T15:08:36.387Z,2.30
2019-04-01T15:11:40.086Z,2.27
2019-04-01T15:14:43.744Z,2.67
2019-04-01T15:17:47.619Z,2.47
2019-04-01T15:20:51.414Z,2.73
2019-04-01T15:23:55.210Z,2.77
2019-04-01T15:26:58.911Z,2.93
2019-04-01T15:30:02.618Z,2.53
2019-04-01T15:33:06.576Z,2.77
2019-04-01T15:36:10.302Z,2.80
2019-04-01T15:39:15.023Z,2.73
2019-04-01T15:42:18.716Z,2.70
2019-04-01T15:45:22.362Z,2.80
2019-04-01T15:48:26.117Z,3.17
2019-04-01T15:51:29.810Z,3.53
2019-04-01T15:54:33.541Z,3.33
2019-04-01T15:57:37.254Z,3.30
2019-04-01T16:00:41.405Z,3.03
2019-04-01T16:03:45.170Z,3.57
2019-04-01T16:06:49.041Z,3.40
2019-04-01T16:09:52.732Z,3.00
2019-04-01T16:12:56.578Z,3.70
2019-04-01T16:16:00.270Z,3.30
2019-04-01T16:19:04.006Z,3.60
2019-04-01T16:22:07.785Z,3.10
2019-04-01T16:25:13.180Z,3.20
2019-04-01T16:28:17.218Z,3.47
2019-04-01T16:31:20.902Z,3.27
2019-04-01T16:34:24.628Z,3.10
2019-04-01T16:37:28.318Z,3.00
2019-04-01T16:40:32.034Z,3.30
2019-04-01T16:43:38.184Z,3.53
2019-04-01T16:46:41.416Z,3.40
2019-04-01T16:49:45.551Z,3.10
2019-04-01T16:52:49.370Z,3.10
2019-04-01T16:55:53.090Z,3.10
2019-04-01T16:58:56.812Z,3.00
2019-04-01T17:02:00.545Z,3.53
2019-04-01T17:05:04.993Z,3.77
2019-04-01T17:08:10.051Z,4.27
2019-04-01T17:11:14.130Z,3.67
2019-04-01T17:14:17.975Z,3.63
2019-04-01T17:17:21.678Z,4.03
2019-04-01T17:20:25.402Z,3.90
2019-04-01T17:23:30.517Z,3.93
2019-04-01T17:27:00.600Z,3.90
2019-04-01T17:30:06.508Z,3.77
2019-04-01T17:33:10.239Z,4.30
2019-04-01T17:36:15.831Z,5.13
2019-04-01T17:39:19.317Z,4.60
2019-04-01T17:42:23.049Z,3.93
2019-04-01T17:45:34.141Z,3.97
2019-04-01T17:48:38.198Z,4.73
2019-04-01T17:51:41.867Z,4.60
2019-04-01T17:54:48.020Z,4.87
2019-04-01T17:57:51.910Z,4.77
2019-04-01T18:00:57.798Z,4.93
2019-04-01T18:04:02.527Z,3.97
2019-04-01T18:07:07.469Z,4.30
2019-04-01T18:10:12.414Z,4.25
2019-04-01T18:13:16.090Z,4.00
2019-04-01T18:16:19.785Z,4.27
2019-04-01T18:19:23.454Z,4.37
2019-04-01T18:22:28.919Z,4.20
2019-04-01T18:25:32.960Z,4.83
2019-04-01T18:28:36.661Z,4.23
2019-04-01T18:31:40.507Z,5.10
2019-04-01T18:34:44.298Z,5.30
2019-04-01T18:37:48.349Z,5.17
2019-04-01T18:40:53.039Z,4.80
2019-04-01T18:43:57.226Z,5.60
2019-04-01T18:47:03.785Z,5.70
2019-04-01T18:50:06.797Z,6.57
2019-04-01T18:53:10.538Z,5.80
2019-04-01T18:56:14.542Z,7.13
2019-04-01T18:59:18.209Z,5.90
2019-04-01T19:02:21.930Z,5.70
2019-04-01T19:05:25.609Z,6.07
2019-04-01T19:08:29.318Z,6.33
2019-04-01T19:11:33.031Z,6.50
2019-04-01T19:14:36.773Z,5.70
2019-04-01T19:17:40.518Z,5.17
2019-04-01T19:20:55.766Z,5.60
2019-04-01T19:23:49.741Z,4.73
2019-04-01T19:26:53.528Z,4.67
2019-04-01T19:29:57.205Z,4.87
2019-04-01T19:33:00.987Z,5.00
2019-04-01T19:36:05.105Z,5.47
2019-04-01T19:39:09.069Z,6.87
2019-04-01T19:42:12.751Z,5.43
2019-04-01T19:45:16.707Z,5.50
2019-04-01T19:48:20.431Z,4.97
2019-04-01T19:51:24.186Z,4.60
2019-04-01T19:54:31.565Z,4.50
2019-04-01T19:57:33.337Z,4.30
2019-04-01T20:00:37.132Z,4.75
2019-04-01T20:03:40.918Z,4.73
2019-04-01T20:06:44.667Z,4.60
2019-04-01T20:09:48.618Z,4.33
2019-04-01T20:12:52.334Z,4.80
2019-04-01T20:15:56.030Z,4.73
2019-04-01T20:18:59.902Z,6.03
2019-04-01T20:22:03.771Z,6.40
2019-04-01T20:25:07.858Z,5.33
2019-04-01T20:28:12.995Z,4.70
2019-04-01T20:31:16.943Z,5.87
2019-04-01T20:34:22.395Z,5.10
2019-04-01T20:37:26.367Z,6.13
2019-04-01T20:40:30.117Z,5.67
2019-04-01T20:43:34.093Z,4.78
2019-04-01T20:46:39.091Z,3.90
2019-04-01T20:49:42.877Z,3.97
2019-04-01T20:52:46.603Z,6.60
2019-04-01T20:55:50.900Z,4.27
2019-04-01T20:58:56.028Z,4.80
2019-04-01T21:02:00.428Z,4.20
2019-04-01T21:05:05.691Z,4.15
2019-04-01T21:08:09.422Z,4.50
2019-04-01T21:11:13.097Z,4.70
2019-04-01T21:14:16.810Z,4.20
2019-04-01T21:17:20.514Z,4.30
2019-04-01T21:20:24.333Z,3.73
2019-04-01T21:23:27.977Z,4.13
2019-04-01T21:26:31.706Z,4.35
2019-04-01T21:29:35.390Z,4.10
2019-04-01T21:32:39.454Z,4.10
2019-04-01T21:35:43.120Z,4.60
2019-04-01T21:38:46.800Z,4.30
2019-04-01T21:41:50.467Z,4.03
2019-04-01T21:44:54.170Z,4.37
2019-04-01T21:47:57.914Z,4.23
2019-04-01T21:51:01.636Z,3.73
2019-04-01T21:54:05.399Z,4.43
2019-04-01T21:57:09.059Z,5.37
2019-04-01T22:00:18.005Z,4.97
2019-04-01T22:03:21.702Z,4.83
2019-04-01T22:06:25.379Z,5.30
2019-04-01T22:09:29.098Z,5.20
2019-04-01T22:12:32.783Z,5.60
2019-04-01T22:15:36.515Z,5.70
2019-04-01T22:18:40.193Z,5.40
2019-04-01T22:21:43.841Z,5.45
2019-04-01T22:24:47.570Z,5.53
2019-04-01T22:27:53.182Z,5.23
2019-04-01T22:30:57.294Z,6.13
2019-04-01T22:34:00.973Z,5.93
2019-04-01T22:37:04.709Z,5.10
2019-04-01T22:40:08.477Z,5.00
2019-04-01T22:43:12.130Z,5.13
2019-04-01T22:46:15.841Z,5.22
2019-04-01T22:49:19.942Z,5.28
2019-04-01T22:52:23.627Z,5.40
2019-04-01T22:55:28.226Z,5.70
2019-04-01T22:58:32.266Z,5.53
2019-04-01T23:01:36.210Z,5.33
2019-04-01T23:04:39.903Z,5.17
2019-04-01T23:07:43.798Z,5.30
2019-04-01T23:10:47.515Z,5.43
2019-04-01T23:13:51.242Z,5.13
2019-04-01T23:16:54.926Z,5.77
2019-04-01T23:19:58.701Z,5.53
2019-04-01T23:23:02.374Z,5.90
2019-04-01T23:26:06.115Z,5.50
2019-04-01T23:29:09.801Z,5.20
2019-04-01T23:32:13.480Z,5.40
2019-04-01T23:35:17.225Z,6.00
2019-04-01T23:38:20.904Z,5.50
2019-04-01T23:41:24.588Z,5.40
2019-04-01T23:44:28.249Z,6.00
2019-04-01T23:47:31.934Z,5.90
2019-04-01T23:50:35.735Z,5.53
2019-04-01T23:53:39.463Z,6.03
2019-04-01T23:56:43.170Z,5.65
2019-04-01T23:59:48.102Z,5.47
